Time;durP1;ratioP1;P1;durP2;ratioP2;P2;SDS_P1;SDS_P2;PMS_P1;PMS_P2;Temp;Humidity;BMP_temperature;BMP_pressure;BME280_temperature;BME280_humidity;BME280_pressure;Samples;Min_cycle;Max_cycle;Signal;HPM_P1;HPM_P2
2021/10/18 00:01:42;;;;;;;21.80;13.32;;;;;;;;;;5028832;28;20028;-68
2021/10/18 00:04:08;;;;;;;19.60;12.40;;;;;;;;;;5030894;28;20124;-68
2021/10/18 00:06:34;;;;;;;22.67;12.70;;;;;;;;;;5043644;28;20080;-68
2021/10/18 00:09:01;;;;;;;17.92;12.85;;;;;;;;;;5025608;28;20034;-67
2021/10/18 00:11:27;;;;;;;25.02;13.07;;;;;;;;;;5027153;28;20025;-68
2021/10/18 00:13:53;;;;;;;23.55;12.75;;;;;;;;;;5027640;28;20030;-68
2021/10/18 00:16:19;;;;;;;22.08;13.68;;;;;;;;;;5034786;28;20029;-68
2021/10/18 00:18:45;;;;;;;19.90;13.48;;;;;;;;;;5035518;28;20087;-68
2021/10/18 00:21:11;;;;;;;21.45;14.25;;;;;;;;;;5026532;28;20021;-68
2021/10/18 00:23:37;;;;;;;24.15;14.07;;;;;;;;;;5028159;28;20028;-68
2021/10/18 00:26:04;;;;;;;22.02;14.25;;;;;;;;;;5026347;28;20120;-68
2021/10/18 00:28:30;;;;;;;22.30;13.15;;;;;;;;;;5022907;28;20091;-68
2021/10/18 00:30:56;;;;;;;21.13;13.32;;;;;;;;;;5051075;28;20065;-68
2021/10/18 00:33:22;;;;;;;22.38;13.15;;;;;;;;;;5028774;28;20026;-68
2021/10/18 00:35:48;;;;;;;25.63;14.68;;;;;;;;;;5039584;28;20045;-68
2021/10/18 00:38:14;;;;;;;26.85;14.63;;;;;;;;;;5035940;28;20029;-68
2021/10/18 00:40:41;;;;;;;22.60;13.98;;;;;;;;;;5026733;28;20025;-68
2021/10/18 00:43:07;;;;;;;20.90;13.55;;;;;;;;;;5046953;28;20124;-68
2021/10/18 00:45:34;;;;;;;30.95;16.80;;;;;;;;;;5026744;28;20068;-68
2021/10/18 00:48:00;;;;;;;23.27;14.68;;;;;;;;;;5025044;28;20047;-68
2021/10/18 00:50:26;;;;;;;24.67;14.15;;;;;;;;;;5027687;28;20022;-68
2021/10/18 00:52:52;;;;;;;25.80;15.48;;;;;;;;;;5024851;28;20508;-68
2021/10/18 00:55:19;;;;;;;22.08;14.52;;;;;;;;;;5041417;28;20445;-68
2021/10/18 00:57:46;;;;;;;25.83;14.68;;;;;;;;;;5025144;28;20037;-68
2021/10/18 01:00:12;;;;;;;20.40;13.93;;;;;;;;;;5024536;28;20022;-68
2021/10/18 01:02:38;;;;;;;19.42;13.55;;;;;;;;;;5030129;28;20156;-68
2021/10/18 01:05:05;;;;;;;31.05;15.02;;;;;;;;;;5028799;28;20033;-67
2021/10/18 01:07:32;;;;;;;23.15;14.70;;;;;;;;;;5026825;28;20032;-68
2021/10/18 01:09:58;;;;;;;22.08;14.10;;;;;;;;;;5025079;28;20021;-68
2021/10/18 01:12:24;;;;;;;24.13;15.45;;;;;;;;;;5026155;28;20022;-68
2021/10/18 01:14:51;;;;;;;29.00;15.55;;;;;;;;;;5042072;28;20491;-69
2021/10/18 01:17:17;;;;;;;25.25;14.65;;;;;;;;;;5027128;28;20022;-68
2021/10/18 01:19:43;;;;;;;26.13;17.42;;;;;;;;;;5025158;28;20025;-68
2021/10/18 01:22:09;;;;;;;23.50;14.68;;;;;;;;;;5036958;28;20025;-68
2021/10/18 01:24:36;;;;;;;24.55;14.80;;;;;;;;;;5028250;28;20544;-68
2021/10/18 01:27:02;;;;;;;29.88;15.70;;;;;;;;;;5026253;28;20025;-68
2021/10/18 01:29:33;;;;;;;26.23;15.40;;;;;;;;;;5022300;28;20080;-67
2021/10/18 01:31:59;;;;;;;24.80;15.93;;;;;;;;;;5026462;28;20042;-68
2021/10/18 01:34:26;;;;;;;26.73;17.02;;;;;;;;;;5025189;28;20087;-68
2021/10/18 01:36:53;;;;;;;25.38;15.75;;;;;;;;;;5025612;28;20529;-68
2021/10/18 01:39:19;;;;;;;23.17;14.27;;;;;;;;;;5022409;28;20087;-68
2021/10/18 01:41:45;;;;;;;29.77;16.92;;;;;;;;;;5027969;28;20033;-68
2021/10/18 01:44:11;;;;;;;28.48;16.75;;;;;;;;;;5026144;28;20029;-68
2021/10/18 01:46:37;;;;;;;24.75;15.15;;;;;;;;;;5024314;28;20029;-68
2021/10/18 01:49:03;;;;;;;28.38;15.98;;;;;;;;;;5023778;28;20040;-70
2021/10/18 01:51:29;;;;;;;24.52;16.40;;;;;;;;;;5027071;28;20053;-68
2021/10/18 01:53:55;;;;;;;27.55;17.75;;;;;;;;;;5034427;28;20036;-68
2021/10/18 01:56:21;;;;;;;25.75;16.42;;;;;;;;;;5033959;28;20064;-68
2021/10/18 01:58:47;;;;;;;29.45;16.20;;;;;;;;;;5022026;28;20037;-68
2021/10/18 02:01:13;;;;;;;26.30;16.55;;;;;;;;;;5024582;28;20049;-68
2021/10/18 02:03:39;;;;;;;27.23;16.55;;;;;;;;;;5025097;28;20025;-68
2021/10/18 02:06:08;;;;;;;24.20;15.68;;;;;;;;;;5028822;28;20022;-68
2021/10/18 02:08:34;;;;;;;27.67;15.90;;;;;;;;;;5037907;28;20030;-68
2021/10/18 02:11:00;;;;;;;25.75;16.58;;;;;;;;;;5049174;28;20037;-68
2021/10/18 02:13:27;;;;;;;31.70;17.58;;;;;;;;;;5037742;28;20132;-67
2021/10/18 02:15:53;;;;;;;28.60;16.98;;;;;;;;;;5039004;28;20025;-68
2021/10/18 02:18:19;;;;;;;28.50;18.00;;;;;;;;;;5037823;28;20102;-68
2021/10/18 02:20:45;;;;;;;23.98;16.63;;;;;;;;;;5030607;28;20029;-68
2021/10/18 02:23:11;;;;;;;29.27;18.50;;;;;;;;;;5030096;28;20029;-68
2021/10/18 02:25:37;;;;;;;36.22;20.70;;;;;;;;;;5028710;28;20036;-68
2021/10/18 02:28:03;;;;;;;34.47;18.95;;;;;;;;;;5028810;28;20044;-68
2021/10/18 02:30:29;;;;;;;30.95;18.90;;;;;;;;;;5034886;28;20021;-68
2021/10/18 02:32:55;;;;;;;31.20;19.35;;;;;;;;;;5028969;28;20048;-68
2021/10/18 02:35:21;;;;;;;32.60;18.20;;;;;;;;;;5032343;28;20022;-68
2021/10/18 02:37:47;;;;;;;30.45;18.58;;;;;;;;;;5040138;28;20124;-68
2021/10/18 02:40:13;;;;;;;30.48;18.30;;;;;;;;;;5033875;28;20021;-68
2021/10/18 02:42:39;;;;;;;32.92;18.27;;;;;;;;;;5032612;28;20026;-68
2021/10/18 02:45:07;;;;;;;33.22;18.50;;;;;;;;;;5036451;28;20112;-68
2021/10/18 02:47:34;;;;;;;29.27;19.70;;;;;;;;;;5036528;28;20025;-68
2021/10/18 02:50:00;;;;;;;31.45;19.02;;;;;;;;;;5032299;28;20034;-67
2021/10/18 02:52:26;;;;;;;28.23;17.65;;;;;;;;;;5037971;28;20485;-68
2021/10/18 02:54:54;;;;;;;36.10;19.15;;;;;;;;;;5036849;28;20026;-68
2021/10/18 02:57:20;;;;;;;31.13;19.52;;;;;;;;;;5036889;28;20113;-68
2021/10/18 02:59:46;;;;;;;31.30;18.92;;;;;;;;;;5031031;28;20029;-68
2021/10/18 03:02:12;;;;;;;32.38;18.35;;;;;;;;;;5030115;28;20064;-68
2021/10/18 03:04:38;;;;;;;30.48;19.05;;;;;;;;;;5028945;28;20442;-68
2021/10/18 03:07:04;;;;;;;32.08;18.55;;;;;;;;;;5038227;28;20029;-68
2021/10/18 03:09:30;;;;;;;27.98;18.58;;;;;;;;;;5028661;28;20120;-68
2021/10/18 03:11:56;;;;;;;36.05;21.20;;;;;;;;;;5054489;28;20444;-68
2021/10/18 03:14:22;;;;;;;32.55;19.30;;;;;;;;;;5035715;28;20397;-68
2021/10/18 03:16:49;;;;;;;28.30;18.55;;;;;;;;;;5035040;28;20067;-67
2021/10/18 03:19:15;;;;;;;32.85;20.27;;;;;;;;;;5027567;28;20108;-68
2021/10/18 03:21:41;;;;;;;32.47;20.00;;;;;;;;;;5046173;28;20048;-68
2021/10/18 03:24:07;;;;;;;31.52;18.98;;;;;;;;;;5030848;28;20110;-68
2021/10/18 03:26:33;;;;;;;32.97;20.40;;;;;;;;;;5040128;28;20083;-67
2021/10/18 03:28:59;;;;;;;30.23;19.63;;;;;;;;;;5028092;28;20394;-68
2021/10/18 03:31:26;;;;;;;29.17;19.45;;;;;;;;;;5047301;28;20389;-67
2021/10/18 03:33:52;;;;;;;30.98;19.85;;;;;;;;;;5032080;28;20037;-68
2021/10/18 03:36:18;;;;;;;34.55;20.52;;;;;;;;;;5042300;28;20047;-68
2021/10/18 03:38:44;;;;;;;35.38;20.33;;;;;;;;;;5031073;28;20234;-68
2021/10/18 03:41:10;;;;;;;35.53;20.58;;;;;;;;;;5035882;28;20503;-68
2021/10/18 03:43:36;;;;;;;36.17;21.70;;;;;;;;;;5027476;28;20441;-68
2021/10/18 03:46:02;;;;;;;36.95;21.35;;;;;;;;;;5032290;28;20858;-68
2021/10/18 03:48:28;;;;;;;38.88;21.05;;;;;;;;;;5032467;28;20060;-68
2021/10/18 03:50:56;;;;;;;38.13;21.27;;;;;;;;;;5032524;28;20028;-68
2021/10/18 03:53:22;;;;;;;31.88;19.60;;;;;;;;;;5030725;28;20017;-68
2021/10/18 03:55:48;;;;;;;35.78;19.83;;;;;;;;;;5038284;28;20075;-68
2021/10/18 03:58:14;;;;;;;33.85;21.17;;;;;;;;;;5028816;28;20221;-68
2021/10/18 04:00:40;;;;;;;37.28;20.67;;;;;;;;;;5036494;28;20067;-67
2021/10/18 04:03:06;;;;;;;33.30;19.80;;;;;;;;;;5032042;28;20048;-68
2021/10/18 04:05:32;;;;;;;35.10;20.25;;;;;;;;;;5029818;28;20498;-68
2021/10/18 04:07:58;;;;;;;34.88;20.25;;;;;;;;;;5029927;28;20041;-68
2021/10/18 04:10:24;;;;;;;34.40;21.15;;;;;;;;;;5040120;28;20481;-68
2021/10/18 04:12:50;;;;;;;38.83;20.65;;;;;;;;;;5032572;28;20397;-68
2021/10/18 04:15:17;;;;;;;32.60;19.05;;;;;;;;;;5039023;28;20394;-68
2021/10/18 04:17:43;;;;;;;34.60;20.30;;;;;;;;;;5037295;28;20033;-68
2021/10/18 04:20:09;;;;;;;32.08;20.08;;;;;;;;;;5026876;28;20108;-68
2021/10/18 04:22:35;;;;;;;33.47;19.83;;;;;;;;;;5034192;28;20065;-68
2021/10/18 04:25:02;;;;;;;31.85;19.85;;;;;;;;;;5032533;28;20462;-68
2021/10/18 04:27:28;;;;;;;30.45;19.05;;;;;;;;;;5033169;28;20033;-68
2021/10/18 04:29:54;;;;;;;37.75;22.52;;;;;;;;;;5031141;28;20029;-68
2021/10/18 04:32:20;;;;;;;38.08;19.95;;;;;;;;;;5025881;28;20045;-68
2021/10/18 04:34:46;;;;;;;32.20;20.05;;;;;;;;;;5030124;28;20022;-68
2021/10/18 04:37:12;;;;;;;34.67;20.20;;;;;;;;;;5038440;28;20047;-68
2021/10/18 04:39:38;;;;;;;36.90;21.23;;;;;;;;;;5034267;28;20090;-67
2021/10/18 04:42:05;;;;;;;37.38;21.48;;;;;;;;;;5031644;28;20117;-67
2021/10/18 04:44:31;;;;;;;37.53;20.98;;;;;;;;;;5034453;28;20036;-67
2021/10/18 04:46:57;;;;;;;33.70;21.30;;;;;;;;;;5031498;28;20083;-67
2021/10/18 04:49:24;;;;;;;36.60;21.45;;;;;;;;;;5028248;28;20029;-68
2021/10/18 04:51:50;;;;;;;36.00;23.23;;;;;;;;;;5028088;28;20021;-68
2021/10/18 04:54:16;;;;;;;48.05;25.63;;;;;;;;;;5029475;28;20025;-68
2021/10/18 04:56:42;;;;;;;38.92;23.02;;;;;;;;;;5027803;28;20123;-68
2021/10/18 04:59:08;;;;;;;37.17;23.60;;;;;;;;;;5028591;28;20052;-68
2021/10/18 05:01:34;;;;;;;36.40;21.50;;;;;;;;;;5034885;28;20036;-68
2021/10/18 05:04:00;;;;;;;37.35;22.42;;;;;;;;;;5034666;28;20421;-68
2021/10/18 05:06:26;;;;;;;36.83;22.80;;;;;;;;;;5035715;22;20134;-95
2021/10/18 05:08:54;;;;;;;39.08;23.17;;;;;;;;;;5007153;28;20029;-94
2021/10/18 05:11:20;;;;;;;40.20;22.50;;;;;;;;;;4994810;28;20506;-95
2021/10/18 05:13:46;;;;;;;38.90;21.92;;;;;;;;;;4991344;28;20097;-93
2021/10/18 05:16:12;;;;;;;39.03;22.75;;;;;;;;;;5007812;28;20022;-93
2021/10/18 05:18:38;;;;;;;41.08;24.25;;;;;;;;;;4992153;28;20480;-94
2021/10/18 05:21:06;;;;;;;40.20;23.30;;;;;;;;;;4992268;28;20092;-95
2021/10/18 05:23:32;;;;;;;39.47;22.38;;;;;;;;;;4992747;28;20114;-94
2021/10/18 05:25:59;;;;;;;38.20;22.35;;;;;;;;;;4991634;28;20026;-94
2021/10/18 05:28:25;;;;;;;40.03;21.77;;;;;;;;;;4992028;28;20034;-94
2021/10/18 05:30:51;;;;;;;40.78;22.42;;;;;;;;;;4985189;28;20046;-94
2021/10/18 05:33:17;;;;;;;39.25;23.70;;;;;;;;;;4988747;28;20019;-93
2021/10/18 05:35:43;;;;;;;39.92;23.40;;;;;;;;;;4983856;28;20026;-94
2021/10/18 05:38:09;;;;;;;39.63;23.08;;;;;;;;;;4988397;28;20037;-93
2021/10/18 05:40:35;;;;;;;43.25;22.67;;;;;;;;;;4997465;28;20511;-94
2021/10/18 05:43:01;;;;;;;41.08;22.95;;;;;;;;;;4992921;28;20034;-92
2021/10/18 05:45:27;;;;;;;41.65;22.25;;;;;;;;;;4993703;28;20113;-93
2021/10/18 05:48:01;;;;;;;40.42;23.30;;;;;;;;;;4984352;28;20042;-94
2021/10/18 05:50:28;;;;;;;42.47;23.95;;;;;;;;;;4999381;28;20114;-93
2021/10/18 05:52:54;;;;;;;38.83;22.20;;;;;;;;;;4990892;28;20033;-94
2021/10/18 05:55:20;;;;;;;37.47;21.75;;;;;;;;;;4993513;28;20053;-93
2021/10/18 05:57:47;;;;;;;38.17;22.50;;;;;;;;;;4992727;28;20038;-93
2021/10/18 06:00:14;;;;;;;40.78;21.98;;;;;;;;;;4987666;28;20026;-94
2021/10/18 06:02:40;;;;;;;38.55;20.83;;;;;;;;;;4996582;28;20050;-94
2021/10/18 06:05:06;;;;;;;45.28;23.92;;;;;;;;;;5007048;28;20061;-95
2021/10/18 06:07:32;;;;;;;36.17;21.58;;;;;;;;;;5005413;28;20054;-95
2021/10/18 06:09:58;;;;;;;38.83;22.10;;;;;;;;;;5009636;28;20034;-95
2021/10/18 06:12:24;;;;;;;41.05;21.80;;;;;;;;;;4996947;28;20121;-94
2021/10/18 06:14:50;;;;;;;40.85;22.70;;;;;;;;;;4997039;28;20052;-94
2021/10/18 06:17:16;;;;;;;39.85;21.05;;;;;;;;;;4997289;28;20150;-95
2021/10/18 06:19:42;;;;;;;41.05;22.55;;;;;;;;;;5035291;22;20053;-68
2021/10/18 06:22:08;;;;;;;36.97;21.52;;;;;;;;;;5032508;28;20104;-69
2021/10/18 06:24:34;;;;;;;35.78;20.65;;;;;;;;;;5032774;28;20511;-68
2021/10/18 06:27:00;;;;;;;37.67;21.45;;;;;;;;;;5024826;28;20079;-68
2021/10/18 06:29:27;;;;;;;35.63;21.10;;;;;;;;;;5024606;28;20033;-68
2021/10/18 06:31:53;;;;;;;34.55;21.23;;;;;;;;;;5030623;28;20032;-68
2021/10/18 06:34:19;;;;;;;43.53;22.02;;;;;;;;;;5033439;28;20031;-68
2021/10/18 06:36:45;;;;;;;38.53;21.02;;;;;;;;;;5023171;28;20091;-68
2021/10/18 06:39:11;;;;;;;39.35;22.30;;;;;;;;;;5021808;28;20030;-68
2021/10/18 06:41:37;;;;;;;38.45;22.25;;;;;;;;;;5031379;28;20033;-68
2021/10/18 06:44:03;;;;;;;35.13;21.73;;;;;;;;;;5031091;28;20022;-68
2021/10/18 06:46:30;;;;;;;36.33;21.52;;;;;;;;;;5031161;28;20025;-68
2021/10/18 06:48:56;;;;;;;37.72;21.48;;;;;;;;;;5021902;28;20049;-69
2021/10/18 06:51:22;;;;;;;38.88;20.83;;;;;;;;;;5031664;28;20025;-68
2021/10/18 06:53:52;;;;;;;35.08;20.42;;;;;;;;;;5031602;28;20053;-68
2021/10/18 06:56:18;;;;;;;39.63;20.70;;;;;;;;;;5024789;28;20509;-68
2021/10/18 06:58:44;;;;;;;32.67;20.40;;;;;;;;;;5029746;28;20523;-68
2021/10/18 07:01:11;;;;;;;34.50;20.63;;;;;;;;;;5027294;28;20041;-68
2021/10/18 07:03:37;;;;;;;38.28;22.00;;;;;;;;;;5026794;28;20521;-68
2021/10/18 07:06:03;;;;;;;37.67;21.15;;;;;;;;;;5024422;28;20038;-68
2021/10/18 07:08:29;;;;;;;35.33;20.42;;;;;;;;;;5019265;28;20052;-68
2021/10/18 07:10:55;;;;;;;37.80;20.70;;;;;;;;;;5032349;28;20570;-68
2021/10/18 07:13:21;;;;;;;37.85;21.30;;;;;;;;;;5031448;28;20075;-68
2021/10/18 07:15:47;;;;;;;33.47;20.17;;;;;;;;;;5023780;28;20064;-68
2021/10/18 07:18:13;;;;;;;37.45;21.80;;;;;;;;;;5025055;28;20575;-68
2021/10/18 07:20:39;;;;;;;33.33;20.13;;;;;;;;;;5032523;28;20091;-68
2021/10/18 07:23:08;;;;;;;34.42;19.67;;;;;;;;;;5023513;28;20025;-68
2021/10/18 07:25:35;;;;;;;38.45;22.40;;;;;;;;;;5024268;28;20036;-69
2021/10/18 07:28:01;;;;;;;34.33;19.17;;;;;;;;;;5029535;28;20040;-68
2021/10/18 07:30:27;;;;;;;33.88;20.38;;;;;;;;;;5030843;28;20022;-69
2021/10/18 07:32:53;;;;;;;36.58;19.52;;;;;;;;;;5030178;28;20026;-68
2021/10/18 07:35:22;;;;;;;32.55;18.98;;;;;;;;;;5027950;28;20025;-68
2021/10/18 07:37:54;;;;;;;33.45;20.05;;;;;;;;;;5020868;28;20252;-68
2021/10/18 07:40:20;;;;;;;33.22;20.83;;;;;;;;;;5026236;28;20034;-69
2021/10/18 07:42:46;;;;;;;39.83;21.05;;;;;;;;;;5028881;28;20252;-68
2021/10/18 07:45:12;;;;;;;32.70;19.98;;;;;;;;;;5028143;28;20030;-68
2021/10/18 07:47:39;;;;;;;40.75;20.52;;;;;;;;;;5027334;28;20021;-68
2021/10/18 07:50:06;;;;;;;35.05;20.08;;;;;;;;;;5028980;28;20049;-68
2021/10/18 07:52:32;;;;;;;33.13;19.98;;;;;;;;;;5022946;28;20083;-68
2021/10/18 07:55:03;;;;;;;33.17;19.27;;;;;;;;;;5027980;28;20021;-68
2021/10/18 07:57:29;;;;;;;34.63;20.30;;;;;;;;;;5026803;28;20099;-68
2021/10/18 07:59:56;;;;;;;35.33;20.15;;;;;;;;;;5019129;28;20037;-68
2021/10/18 08:02:22;;;;;;;32.30;19.80;;;;;;;;;;5023026;28;20033;-68
2021/10/18 08:04:48;;;;;;;34.50;19.20;;;;;;;;;;5023166;28;20025;-68
2021/10/18 08:07:14;;;;;;;32.25;19.67;;;;;;;;;;5025315;28;20025;-68
2021/10/18 08:09:40;;;;;;;36.00;20.52;;;;;;;;;;5025306;28;20075;-68
2021/10/18 08:12:06;;;;;;;33.88;18.77;;;;;;;;;;5029843;28;20026;-69
2021/10/18 08:14:32;;;;;;;37.40;20.20;;;;;;;;;;5023551;28;20021;-68
2021/10/18 08:17:04;;;;;;;28.15;17.30;;;;;;;;;;5028605;28;20029;-68
2021/10/18 08:19:30;;;;;;;38.47;18.85;;;;;;;;;;5023374;28;20046;-68
2021/10/18 08:21:56;;;;;;;34.40;18.65;;;;;;;;;;5030762;28;20021;-69
2021/10/18 08:24:22;;;;;;;42.00;20.17;;;;;;;;;;5029246;28;20029;-69
2021/10/18 08:26:48;;;;;;;30.80;17.70;;;;;;;;;;5030613;28;20029;-68
2021/10/18 08:29:14;;;;;;;31.63;18.23;;;;;;;;;;5024048;28;20018;-68
2021/10/18 08:31:41;;;;;;;33.40;18.10;;;;;;;;;;5026603;28;20033;-67
2021/10/18 08:34:08;;;;;;;31.98;18.13;;;;;;;;;;5031158;28;20392;-68
2021/10/18 08:36:37;;;;;;;32.33;17.02;;;;;;;;;;5022485;28;20018;-68
2021/10/18 08:42:27;;;;;;;33.92;18.88;;;;;;;;;;5027669;28;20026;-68
2021/10/18 08:44:34;;;;;;;29.40;17.67;;;;;;;;;;5017835;28;20037;-68
2021/10/18 08:47:02;;;;;;;30.75;17.30;;;;;;;;;;5030432;28;20048;-67
2021/10/18 08:49:29;;;;;;;32.00;17.85;;;;;;;;;;5020184;28;20071;-68
2021/10/18 08:51:55;;;;;;;32.22;17.20;;;;;;;;;;5022378;28;20026;-68
2021/10/18 08:54:21;;;;;;;29.15;16.90;;;;;;;;;;5028661;28;20021;-68
2021/10/18 08:56:48;;;;;;;31.60;17.15;;;;;;;;;;5022357;28;20060;-68
2021/10/18 08:59:16;;;;;;;25.58;16.85;;;;;;;;;;5025641;28;20033;-68
2021/10/18 09:01:49;;;;;;;26.73;16.70;;;;;;;;;;5021707;28;20602;-68
2021/10/18 09:04:25;;;;;;;28.08;17.30;;;;;;;;;;5023604;28;20056;-68
2021/10/18 09:06:53;;;;;;;29.10;16.77;;;;;;;;;;5028534;28;20050;-68
2021/10/18 09:09:29;;;;;;;29.73;16.85;;;;;;;;;;5020602;28;20188;-68
2021/10/18 09:11:57;;;;;;;27.25;17.25;;;;;;;;;;5030310;28;20523;-68
2021/10/18 09:14:23;;;;;;;31.33;18.23;;;;;;;;;;5030665;28;20026;-68
2021/10/18 09:16:49;;;;;;;27.10;16.20;;;;;;;;;;5021660;28;20029;-68
2021/10/18 09:19:26;;;;;;;30.55;17.50;;;;;;;;;;5019375;28;20052;-68
2021/10/18 09:21:56;;;;;;;28.67;17.38;;;;;;;;;;5021083;28;20045;-69
2021/10/18 09:24:35;;;;;;;30.85;17.25;;;;;;;;;;5029924;28;20025;-69
2021/10/18 09:27:02;;;;;;;28.05;17.30;;;;;;;;;;5021837;28;20038;-69
2021/10/18 09:29:47;;;;;;;28.58;16.15;;;;;;;;;;5021584;28;20026;-68
2021/10/18 09:32:20;;;;;;;26.17;15.98;;;;;;;;;;5021122;28;20438;-68
2021/10/18 09:34:47;;;;;;;29.90;17.65;;;;;;;;;;5029679;28;20455;-68
2021/10/18 09:37:15;;;;;;;25.23;15.88;;;;;;;;;;5021827;28;20426;-68
2021/10/18 09:39:45;;;;;;;23.75;15.73;;;;;;;;;;5019605;28;20430;-68
2021/10/18 09:42:13;;;;;;;32.30;17.08;;;;;;;;;;5021307;28;20025;-68
2021/10/18 10:52:39;;;;;;;22.75;14.77;;;;;;;;;;5032690;28;20158;-67
2021/10/18 10:55:24;;;;;;;27.65;15.60;;;;;;;;;;5022331;28;20029;-69
2021/10/18 10:57:52;;;;;;;23.75;14.82;;;;;;;;;;5029610;28;20084;-68
2021/10/18 11:00:37;;;;;;;25.58;15.25;;;;;;;;;;5030240;28;20110;-69
2021/10/18 11:03:25;;;;;;;26.70;14.32;;;;;;;;;;5024300;28;20026;-69
2021/10/18 11:05:55;;;;;;;27.73;15.85;;;;;;;;;;5023147;28;20038;-69
2021/10/18 11:08:32;;;;;;;25.50;14.57;;;;;;;;;;5023737;28;20033;-70
2021/10/18 11:11:07;;;;;;;24.98;15.38;;;;;;;;;;5031300;28;20095;-70
2021/10/18 11:13:40;;;;;;;25.80;15.75;;;;;;;;;;5032773;28;20018;-69
2021/10/18 11:16:06;;;;;;;25.23;14.52;;;;;;;;;;5023976;28;20455;-69
2021/10/18 11:18:32;;;;;;;29.27;17.02;;;;;;;;;;5028307;28;20407;-70
2021/10/18 11:21:11;;;;;;;23.48;15.38;;;;;;;;;;5023539;28;20037;-70
2021/10/18 11:23:53;;;;;;;25.85;15.52;;;;;;;;;;5024198;28;20512;-70
2021/10/18 11:26:19;;;;;;;25.30;15.57;;;;;;;;;;5031126;28;20117;-70
2021/10/18 11:28:45;;;;;;;24.80;14.85;;;;;;;;;;5021399;28;20042;-69
2021/10/18 11:31:11;;;;;;;24.73;14.75;;;;;;;;;;5031999;28;20097;-69
2021/10/18 11:33:38;;;;;;;24.27;13.90;;;;;;;;;;5023116;28;20026;-70
2021/10/18 11:36:17;;;;;;;22.67;14.60;;;;;;;;;;5031652;28;20376;-70
2021/10/18 11:38:44;;;;;;;23.50;14.80;;;;;;;;;;5028090;28;20515;-70
2021/10/18 11:41:11;;;;;;;25.20;14.85;;;;;;;;;;5024468;28;20049;-70
2021/10/18 11:43:37;;;;;;;27.13;14.00;;;;;;;;;;5032572;28;20044;-69
2021/10/18 11:46:03;;;;;;;23.98;14.25;;;;;;;;;;5031332;28;20116;-69
2021/10/18 11:48:30;;;;;;;24.52;15.13;;;;;;;;;;5029181;28;20026;-70
2021/10/18 11:51:03;;;;;;;20.88;13.70;;;;;;;;;;5023746;28;20032;-69
2021/10/18 11:53:33;;;;;;;19.85;12.93;;;;;;;;;;5021611;28;20499;-70
2021/10/18 11:56:00;;;;;;;21.52;13.30;;;;;;;;;;5022250;28;20026;-69
2021/10/18 11:58:28;;;;;;;21.67;13.90;;;;;;;;;;5024769;28;20582;-69
2021/10/18 12:00:58;;;;;;;21.45;12.85;;;;;;;;;;5031457;28;20033;-70
2021/10/18 12:03:27;;;;;;;19.92;12.95;;;;;;;;;;5030445;28;20030;-70
2021/10/18 12:05:54;;;;;;;21.02;12.57;;;;;;;;;;5030417;28;20120;-70
2021/10/18 12:08:21;;;;;;;20.40;12.73;;;;;;;;;;5028768;28;20176;-69
2021/10/18 12:10:48;;;;;;;23.17;13.25;;;;;;;;;;5023237;28;20503;-69
2021/10/18 12:13:14;;;;;;;23.65;13.23;;;;;;;;;;5027514;28;20061;-69
2021/10/18 12:15:43;;;;;;;23.05;13.77;;;;;;;;;;5021770;28;20018;-70
2021/10/18 12:18:10;;;;;;;22.02;14.00;;;;;;;;;;5019991;28;20022;-70
2021/10/18 12:20:36;;;;;;;23.17;13.15;;;;;;;;;;5028778;28;20049;-70
2021/10/18 12:23:06;;;;;;;24.75;13.70;;;;;;;;;;5025744;28;20435;-70
2021/10/18 12:25:36;;;;;;;21.33;13.20;;;;;;;;;;5025859;28;20029;-70
2021/10/18 12:28:22;;;;;;;22.45;14.48;;;;;;;;;;5026170;28;20590;-70
2021/10/18 12:30:48;;;;;;;26.95;13.27;;;;;;;;;;5028988;28;20124;-69
2021/10/18 12:33:14;;;;;;;23.98;13.70;;;;;;;;;;5030568;28;20028;-70
2021/10/18 12:35:40;;;;;;;22.83;13.98;;;;;;;;;;5031237;28;20022;-70
2021/10/18 12:38:14;;;;;;;22.23;14.07;;;;;;;;;;5022516;28;20121;-70
2021/10/18 12:40:41;;;;;;;21.45;13.48;;;;;;;;;;5025778;28;20030;-69
2021/10/18 12:43:25;;;;;;;23.95;13.98;;;;;;;;;;5029624;28;20094;-70
2021/10/18 12:45:51;;;;;;;24.65;13.95;;;;;;;;;;5028417;28;20033;-69
2021/10/18 12:48:22;;;;;;;20.90;13.68;;;;;;;;;;5018232;28;20021;-69
2021/10/18 12:50:48;;;;;;;18.05;12.02;;;;;;;;;;5021384;28;20112;-70
2021/10/18 12:53:27;;;;;;;20.95;13.40;;;;;;;;;;5028235;28;20087;-70
2021/10/18 12:55:54;;;;;;;19.60;11.73;;;;;;;;;;5030119;28;20034;-70
2021/10/18 12:58:23;;;;;;;21.77;12.93;;;;;;;;;;5025233;28;20092;-70
2021/10/18 13:00:49;;;;;;;22.40;14.00;;;;;;;;;;5029378;28;20048;-70
2021/10/18 13:03:18;;;;;;;23.13;13.35;;;;;;;;;;5029085;28;20036;-70
2021/10/18 13:05:48;;;;;;;21.15;12.95;;;;;;;;;;5026131;28;20036;-69
2021/10/18 13:08:15;;;;;;;20.90;12.88;;;;;;;;;;5020890;28;20125;-70
2021/10/18 13:10:41;;;;;;;22.30;12.70;;;;;;;;;;5027066;28;20017;-69
2021/10/18 13:13:08;;;;;;;18.45;12.10;;;;;;;;;;5022702;28;20083;-69
2021/10/18 13:15:35;;;;;;;22.13;12.75;;;;;;;;;;5021777;28;20040;-70
2021/10/18 13:18:01;;;;;;;18.30;12.57;;;;;;;;;;5020086;28;20033;-69
2021/10/18 13:20:27;;;;;;;22.30;12.73;;;;;;;;;;5023094;28;20052;-69
2021/10/18 13:22:55;;;;;;;24.73;13.35;;;;;;;;;;5018822;28;20091;-69
2021/10/18 13:25:22;;;;;;;22.30;12.52;;;;;;;;;;5027472;28;20033;-69
2021/10/18 13:27:49;;;;;;;18.45;11.77;;;;;;;;;;5019534;28;20080;-69
2021/10/18 13:30:15;;;;;;;17.35;11.95;;;;;;;;;;5026431;28;20131;-69
2021/10/18 13:32:41;;;;;;;22.70;13.65;;;;;;;;;;5028969;28;20030;-69
2021/10/18 13:35:08;;;;;;;19.33;12.15;;;;;;;;;;5030090;28;20384;-69
2021/10/18 13:37:34;;;;;;;24.67;12.88;;;;;;;;;;5022119;28;20164;-69
2021/10/18 13:40:01;;;;;;;20.50;12.73;;;;;;;;;;5025919;28;20040;-69
2021/10/18 13:42:28;;;;;;;19.98;12.63;;;;;;;;;;5028812;28;20041;-70
2021/10/18 13:44:54;;;;;;;21.42;12.73;;;;;;;;;;5029607;28;20119;-69
2021/10/18 13:47:20;;;;;;;20.27;12.80;;;;;;;;;;5029619;28;20435;-69
2021/10/18 13:49:46;;;;;;;26.40;12.88;;;;;;;;;;5025579;28;20025;-69
2021/10/18 13:52:12;;;;;;;25.55;12.95;;;;;;;;;;5029303;28;20025;-69
2021/10/18 13:54:38;;;;;;;20.27;12.57;;;;;;;;;;5029599;28;20021;-70
2021/10/18 13:57:05;;;;;;;20.23;12.73;;;;;;;;;;5044277;28;20034;-69
2021/10/18 13:59:34;;;;;;;21.05;13.35;;;;;;;;;;5027457;28;20072;-69
2021/10/18 14:02:01;;;;;;;21.98;13.55;;;;;;;;;;5025456;28;20056;-69
2021/10/18 14:04:27;;;;;;;22.02;12.18;;;;;;;;;;5029677;28;20032;-69
2021/10/18 14:06:53;;;;;;;21.38;12.40;;;;;;;;;;5020578;28;20500;-69
2021/10/18 14:09:19;;;;;;;22.33;13.55;;;;;;;;;;5026917;28;20483;-69
2021/10/18 14:11:45;;;;;;;20.42;13.75;;;;;;;;;;5029733;28;20033;-70
2021/10/18 14:14:11;;;;;;;23.52;13.30;;;;;;;;;;5025982;28;20018;-69
2021/10/18 14:16:38;;;;;;;24.67;14.07;;;;;;;;;;5025686;28;20053;-69
2021/10/18 14:19:05;;;;;;;20.33;13.05;;;;;;;;;;5026743;28;20072;-70
2021/10/18 14:21:31;;;;;;;21.65;12.77;;;;;;;;;;5029382;28;20064;-70
2021/10/18 14:24:01;;;;;;;22.60;12.40;;;;;;;;;;5026982;28;20033;-70
2021/10/18 14:26:28;;;;;;;21.40;14.05;;;;;;;;;;5022255;28;20051;-69
2021/10/18 14:28:54;;;;;;;23.38;13.63;;;;;;;;;;5027860;28;20159;-69
2021/10/18 14:31:21;;;;;;;20.45;13.55;;;;;;;;;;5031444;28;20071;-69
2021/10/18 14:33:47;;;;;;;22.48;15.25;;;;;;;;;;5032063;28;20026;-70
2021/10/18 14:36:13;;;;;;;23.17;13.48;;;;;;;;;;5026154;28;20029;-70
2021/10/18 14:38:39;;;;;;;23.30;14.05;;;;;;;;;;5020550;28;20025;-70
2021/10/18 14:41:06;;;;;;;21.92;14.02;;;;;;;;;;5045076;28;20079;-70
2021/10/18 14:43:32;;;;;;;22.10;13.90;;;;;;;;;;5031368;28;20041;-70
2021/10/18 14:45:58;;;;;;;21.02;14.05;;;;;;;;;;5031908;28;20035;-70
2021/10/18 14:48:24;;;;;;;19.02;13.15;;;;;;;;;;5029004;28;20099;-69
2021/10/18 14:50:50;;;;;;;22.38;13.68;;;;;;;;;;5030370;28;20072;-70
2021/10/18 14:53:17;;;;;;;19.73;13.30;;;;;;;;;;5027238;28;20022;-70
2021/10/18 14:55:43;;;;;;;21.75;13.77;;;;;;;;;;5030107;28;20026;-70
2021/10/18 14:58:12;;;;;;;22.25;14.35;;;;;;;;;;5027663;28;20040;-70
2021/10/18 15:00:38;;;;;;;24.08;12.75;;;;;;;;;;5030036;28;20049;-69
2021/10/18 15:03:04;;;;;;;20.83;13.23;;;;;;;;;;5034439;28;20498;-70
2021/10/18 15:05:31;;;;;;;23.85;12.63;;;;;;;;;;5029742;28;20029;-70
2021/10/18 15:07:58;;;;;;;22.75;13.40;;;;;;;;;;5025160;28;20025;-69
2021/10/18 15:10:25;;;;;;;23.05;13.25;;;;;;;;;;5025464;28;20034;-69
2021/10/18 15:12:52;;;;;;;20.35;13.65;;;;;;;;;;5028499;28;20492;-69
2021/10/18 15:15:19;;;;;;;20.58;12.85;;;;;;;;;;5031690;28;20026;-70
2021/10/18 15:17:45;;;;;;;23.83;12.52;;;;;;;;;;5030654;28;20026;-69
2021/10/18 15:20:12;;;;;;;21.48;12.15;;;;;;;;;;5028630;28;20487;-69
2021/10/18 15:22:38;;;;;;;19.63;11.82;;;;;;;;;;5030552;28;20084;-69
2021/10/18 15:25:04;;;;;;;22.00;12.55;;;;;;;;;;5031545;28;20040;-70
2021/10/18 15:27:31;;;;;;;20.90;12.30;;;;;;;;;;5027466;28;20034;-70